Time,TemperatureF,DewpointF,PressureIn,WindDirection,WindDirectionDegrees,WindSpeedMPH,WindSpeedGustMPH,Humidity,HourlyPrecipIn,Conditions,Clouds,dailyrainin,SolarRadiationWatts/m^2,SoftwareType,DateUTC
2013-01-23 00:02:00,39.0,28.0,30.32,NE,47,1.0,1.0,64,-99.99,,,-99.99,0.000000,,2013-01-23 08:02:00,
2013-01-23 00:12:00,39.0,29.0,30.32,NE,44,0.0,1.0,66,-99.99,,,-99.99,0.000000,,2013-01-23 08:12:00,
2013-01-23 00:22:00,39.0,30.0,30.32,NE,48,1.0,1.0,68,-99.99,,,-99.99,0.000000,,2013-01-23 08:22:00,
2013-01-23 00:32:00,39.0,29.0,30.32,NE,49,1.0,1.0,68,-99.99,,,-99.99,0.000000,,2013-01-23 08:32:00,
2013-01-23 00:42:00,39.0,30.0,30.32,NE,48,1.0,1.0,70,-99.99,,,-99.99,0.000000,,2013-01-23 08:42:00,
2013-01-23 00:52:00,39.0,31.0,30.32,NE,48,1.0,1.0,72,-99.99,,,-99.99,0.000000,,2013-01-23 08:52:00,
2013-01-23 01:02:00,39.0,31.0,30.32,NE,48,1.0,1.0,72,-99.99,,,-99.99,0.000000,,2013-01-23 09:02:00,
2013-01-23 01:12:00,39.0,31.0,30.32,NE,37,1.0,1.0,71,-99.99,,,-99.99,0.000000,,2013-01-23 09:12:00,
2013-01-23 01:22:00,39.0,31.0,30.32,NE,47,0.0,1.0,73,-99.99,,,-99.99,0.000000,,2013-01-23 09:22:00,
2013-01-23 01:32:00,39.0,31.0,30.32,NE,39,0.0,1.0,73,-99.99,,,-99.99,0.000000,,2013-01-23 09:32:00,
2013-01-23 01:43:00,39.0,31.0,30.32,NE,50,0.0,1.0,73,-99.99,,,-99.99,0.000000,,2013-01-23 09:43:00,
2013-01-23 01:52:00,39.0,32.0,30.32,NE,45,1.0,1.0,74,-99.99,,,-99.99,0.000000,,2013-01-23 09:52:00,
2013-01-23 02:02:00,39.0,32.0,30.32,NE,44,0.0,1.0,74,-99.99,,,-99.99,0.000000,,2013-01-23 10:02:00,
2013-01-23 02:12:00,39.0,32.0,-100.00,NE,44,0.0,1.0,74,-99.99,,,-99.99,0.000000,,2013-01-23 10:12:00,
2013-01-23 02:22:00,40.0,32.0,30.32,NE,45,1.0,1.0,75,-99.99,,,-99.99,0.000000,,2013-01-23 10:22:00,
2013-01-23 02:32:00,40.0,32.0,30.32,NE,45,1.0,1.0,75,-99.99,,,-99.99,0.000000,,2013-01-23 10:32:00,
2013-01-23 02:42:00,40.0,32.0,-100.00,NE,45,1.0,1.0,75,-99.99,,,-99.99,0.000000,,2013-01-23 10:42:00,
2013-01-23 02:52:00,40.0,32.0,30.28,NE,48,0.0,1.0,75,-99.99,,,-99.99,0.000000,,2013-01-23 10:52:00,
2013-01-23 03:02:00,40.0,32.0,-100.00,NE,48,0.0,1.0,75,-99.99,,,-99.99,0.000000,,2013-01-23 11:02:00,
2013-01-23 03:12:00,39.0,32.0,30.28,NE,45,0.0,1.0,76,-99.99,,,-99.99,0.000000,,2013-01-23 11:12:00,
2013-01-23 03:22:00,40.0,33.0,30.28,NE,45,1.0,1.0,76,-99.99,,,-99.99,0.000000,,2013-01-23 11:22:00,
2013-01-23 03:33:00,40.0,33.0,30.28,NE,48,1.0,1.0,76,-99.99,,,-99.99,0.000000,,2013-01-23 11:33:00,
2013-01-23 03:42:00,40.0,33.0,-100.00,NE,48,1.0,1.0,76,-99.99,,,-99.99,0.000000,,2013-01-23 11:42:00,
2013-01-23 03:52:00,40.0,33.0,-100.00,NE,48,1.0,1.0,76,-99.99,,,-99.99,0.000000,,2013-01-23 11:52:00,
2013-01-23 04:02:00,40.0,33.0,30.28,NE,52,1.0,1.0,76,-99.99,,,-99.99,0.000000,,2013-01-23 12:02:00,
2013-01-23 04:12:00,40.0,33.0,30.28,NE,34,0.0,1.0,75,-99.99,,,-99.99,0.000000,,2013-01-23 12:12:00,
2013-01-23 04:22:00,40.0,33.0,30.28,NE,34,0.0,1.0,75,-99.99,,,-99.99,0.000000,,2013-01-23 12:22:00,
2013-01-23 04:32:00,40.0,33.0,30.28,NE,48,0.0,1.0,76,-99.99,,,-99.99,0.000000,,2013-01-23 12:32:00,
2013-01-23 04:42:00,40.0,33.0,30.28,NE,52,0.0,1.0,77,-99.99,,,-99.99,0.000000,,2013-01-23 12:42:00,
2013-01-23 04:52:00,40.0,33.0,30.28,NE,52,0.0,1.0,77,-99.99,,,-99.99,0.000000,,2013-01-23 12:52:00,
2013-01-23 05:00:00,40.0,33.0,-100.00,NE,43,0.0,1.0,76,-99.99,,,-99.99,0.000000,,2013-01-23 13:00:00,
2013-01-23 05:03:00,40.0,33.0,30.28,NE,50,0.0,1.0,77,-99.99,,,-99.99,0.000000,,2013-01-23 13:03:00,
2013-01-23 05:12:00,40.0,33.0,30.28,NE,49,0.0,1.0,78,-99.99,,,-99.99,0.000000,,2013-01-23 13:12:00,
2013-01-23 05:23:00,40.0,33.0,30.28,NE,45,0.0,1.0,77,-99.99,,,-99.99,0.000000,,2013-01-23 13:23:00,
2013-01-23 05:33:00,40.0,33.0,30.28,NE,48,0.0,1.0,78,-99.99,,,-99.99,0.000000,,2013-01-23 13:33:00,
2013-01-23 05:42:00,40.0,33.0,30.28,NE,43,0.0,1.0,76,-99.99,,,-99.99,0.000000,,2013-01-23 13:42:00,
2013-01-23 05:52:00,40.0,33.0,30.28,NE,43,0.0,1.0,76,-99.99,,,-99.99,0.000000,,2013-01-23 13:52:00,
2013-01-23 10:03:00,54.0,33.0,30.32,North,358,1.0,3.0,46,-99.99,,,-99.99,120.000000,,2013-01-23 18:03:00,
2013-01-23 10:12:00,55.0,33.0,30.32,North,350,1.0,4.0,43,-99.99,,,-99.99,120.000000,,2013-01-23 18:12:00,
2013-01-23 10:23:00,56.0,33.0,30.32,NNW,340,1.0,5.0,41,-99.99,,,-99.99,180.000000,,2013-01-23 18:23:00,
2013-01-23 10:32:00,56.0,33.0,30.32,NNW,340,1.0,5.0,41,-99.99,,,-99.99,180.000000,,2013-01-23 18:32:00,
2013-01-23 10:43:00,57.0,32.0,30.32,NNW,348,1.0,5.0,38,-99.99,,,-99.99,170.000000,,2013-01-23 18:43:00,
2013-01-23 10:50:00,58.0,31.0,-100.00,North,349,1.0,4.0,36,-99.99,,,-99.99,170.000000,,2013-01-23 18:50:00,
2013-01-23 10:52:00,57.0,33.0,30.32,West,274,1.0,3.0,39,-99.99,,,-99.99,160.000000,,2013-01-23 18:52:00,
2013-01-23 11:02:00,59.0,31.0,30.32,NNW,334,2.0,5.0,35,-99.99,,,-99.99,100.000000,,2013-01-23 19:02:00,
2013-01-23 11:12:00,58.0,30.0,30.32,NW,322,2.0,6.0,34,-99.99,,,-99.99,130.000000,,2013-01-23 19:12:00,
2013-01-23 11:22:00,58.0,31.0,30.32,North,349,1.0,4.0,36,-99.99,,,-99.99,170.000000,,2013-01-23 19:22:00,
2013-01-23 11:32:00,58.0,31.0,30.32,North,349,1.0,4.0,36,-99.99,,,-99.99,170.000000,,2013-01-23 19:32:00,
2013-01-23 11:42:00,58.0,31.0,-100.00,North,349,1.0,4.0,36,-99.99,,,-99.99,170.000000,,2013-01-23 19:42:00,
2013-01-23 12:12:00,58.0,30.0,30.32,North,350,1.0,3.0,34,-99.99,,,-99.99,220.000000,,2013-01-23 20:12:00,
2013-01-23 12:23:00,58.0,29.0,30.28,NW,326,2.0,4.0,33,-99.99,,,-99.99,250.000000,,2013-01-23 20:23:00,
2013-01-23 12:32:00,59.0,28.0,30.28,North,7,2.0,6.0,31,-99.99,,,-99.99,210.000000,,2013-01-23 20:32:00,
2013-01-23 12:42:00,58.0,28.0,30.28,North,357,2.0,7.0,32,-99.99,,,-99.99,170.000000,,2013-01-23 20:42:00,
2013-01-23 12:53:00,58.0,29.0,30.28,NNW,342,1.0,6.0,33,-99.99,,,-99.99,160.000000,,2013-01-23 20:53:00,
2013-01-23 13:02:00,58.0,28.0,30.28,North,355,2.0,7.0,31,-99.99,,,-99.99,150.000000,,2013-01-23 21:02:00,
2013-01-23 13:12:00,58.0,28.0,30.28,NNW,336,1.0,6.0,32,-99.99,,,-99.99,190.000000,,2013-01-23 21:12:00,
2013-01-23 13:22:00,58.0,27.0,30.28,North,5,1.0,4.0,30,-99.99,,,-99.99,220.000000,,2013-01-23 21:22:00,
2013-01-23 13:33:00,58.0,27.0,30.28,North,5,1.0,4.0,30,-99.99,,,-99.99,220.000000,,2013-01-23 21:33:00,
2013-01-23 13:42:00,58.0,28.0,30.28,West,273,1.0,4.0,31,-99.99,,,-99.99,200.000000,,2013-01-23 21:42:00,
2013-01-23 13:52:00,58.0,27.0,30.28,North,7,1.0,4.0,30,-99.99,,,-99.99,230.000000,,2013-01-23 21:52:00,
2013-01-23 14:02:00,58.0,28.0,30.25,NW,313,1.0,4.0,31,-99.99,,,-99.99,280.000000,,2013-01-23 22:02:00,
2013-01-23 14:12:00,58.0,28.0,30.25,NW,317,1.0,2.0,32,-99.99,,,-99.99,130.000000,,2013-01-23 22:12:00,
2013-01-23 14:22:00,58.0,27.0,30.25,NNW,340,1.0,3.0,31,-99.99,,,-99.99,360.000000,,2013-01-23 22:22:00,
2013-01-23 14:33:00,59.0,27.0,30.25,North,356,1.0,4.0,30,-99.99,,,-99.99,160.000000,,2013-01-23 22:33:00,
2013-01-23 14:40:00,55.0,30.0,-100.00,SE,126,1.0,1.0,39,-99.99,,,-99.99,140.000000,,2013-01-23 22:40:00,
2013-01-23 14:42:00,58.0,28.0,30.25,SW,236,1.0,3.0,32,-99.99,,,-99.99,140.000000,,2013-01-23 22:42:00,
2013-01-23 14:52:00,58.0,28.0,-100.00,SW,236,1.0,3.0,32,-99.99,,,-99.99,140.000000,,2013-01-23 22:52:00,
2013-01-23 15:02:00,55.0,31.0,30.25,SSE,158,0.0,1.0,40,-99.99,,,-99.99,110.000000,,2013-01-23 23:02:00,
2013-01-23 15:12:00,55.0,31.0,-100.00,SSE,158,0.0,1.0,40,-99.99,,,-99.99,110.000000,,2013-01-23 23:12:00,
2013-01-23 15:22:00,55.0,30.0,30.25,SE,126,1.0,1.0,39,-99.99,,,-99.99,140.000000,,2013-01-23 23:22:00,
2013-01-23 15:33:00,55.0,30.0,30.25,SE,126,1.0,1.0,39,-99.99,,,-99.99,140.000000,,2013-01-23 23:33:00,
2013-01-23 15:50:00,52.0,34.0,-100.00,ESE,119,0.0,1.0,51,-99.99,,,-99.99,70.000000,,2013-01-23 23:50:00,
2013-01-23 16:03:00,53.0,34.0,30.25,SSE,159,0.0,0.0,48,-99.99,,,-99.99,80.000000,,2013-01-24 00:03:00,
2013-01-23 16:12:00,53.0,34.0,30.25,SSW,192,0.0,1.0,49,-99.99,,,-99.99,70.000000,,2013-01-24 00:12:00,
2013-01-23 16:22:00,52.0,34.0,30.28,ESE,119,0.0,1.0,51,-99.99,,,-99.99,70.000000,,2013-01-24 00:22:00,
2013-01-23 16:32:00,52.0,34.0,30.28,ESE,119,0.0,1.0,51,-99.99,,,-99.99,70.000000,,2013-01-24 00:32:00,
2013-01-23 16:42:00,52.0,34.0,-100.00,ESE,119,0.0,1.0,51,-99.99,,,-99.99,70.000000,,2013-01-24 00:42:00,
2013-01-23 17:02:00,49.0,35.0,30.28,ESE,120,0.0,0.0,59,-99.99,,,-99.99,20.000000,,2013-01-24 01:02:00,
2013-01-23 17:12:00,49.0,35.0,-100.00,ESE,120,0.0,0.0,59,-99.99,,,-99.99,20.000000,,2013-01-24 01:12:00,
2013-01-23 17:22:00,48.0,36.0,30.28,NE,50,0.0,1.0,62,-99.99,,,-99.99,20.000000,,2013-01-24 01:22:00,
2013-01-23 17:32:00,48.0,36.0,30.25,ENE,78,0.0,0.0,63,-99.99,,,-99.99,10.000000,,2013-01-24 01:32:00,
2013-01-23 17:42:00,47.0,36.0,30.25,ENE,60,0.0,1.0,64,-99.99,,,-99.99,0.000000,,2013-01-24 01:42:00,
2013-01-23 17:50:00,45.0,36.0,-100.00,ENE,57,0.0,1.0,68,-99.99,,,-99.99,0.000000,,2013-01-24 01:50:00,
2013-01-23 17:52:00,47.0,36.0,30.25,NE,56,0.0,1.0,66,-99.99,,,-99.99,0.000000,,2013-01-24 01:52:00,
2013-01-23 18:02:00,47.0,35.0,30.25,East,100,0.0,1.0,65,-99.99,,,-99.99,0.000000,,2013-01-24 02:02:00,
2013-01-23 18:12:00,46.0,36.0,30.25,NNE,22,0.0,1.0,67,-99.99,,,-99.99,0.000000,,2013-01-24 02:12:00,
2013-01-23 18:22:00,45.0,36.0,30.25,ENE,57,0.0,1.0,68,-99.99,,,-99.99,0.000000,,2013-01-24 02:22:00,
2013-01-23 18:32:00,45.0,36.0,-100.00,ENE,57,0.0,1.0,68,-99.99,,,-99.99,0.000000,,2013-01-24 02:32:00,
2013-01-23 18:42:00,45.0,36.0,-100.00,ENE,57,0.0,1.0,68,-99.99,,,-99.99,0.000000,,2013-01-24 02:42:00,
2013-01-23 19:02:00,45.0,35.0,30.28,ENE,58,0.0,1.0,68,-99.99,,,-99.99,0.000000,,2013-01-24 03:02:00,
2013-01-23 19:12:00,45.0,35.0,30.28,East,95,0.0,1.0,68,-99.99,,,-99.99,0.000000,,2013-01-24 03:12:00,
2013-01-23 19:22:00,44.0,35.0,30.28,NE,51,0.0,1.0,69,-99.99,,,-99.99,0.000000,,2013-01-24 03:22:00,
2013-01-23 19:32:00,44.0,35.0,30.28,SSW,204,0.0,1.0,70,-99.99,,,-99.99,0.000000,,2013-01-24 03:32:00,
2013-01-23 19:42:00,44.0,35.0,30.28,NE,35,0.0,1.0,71,-99.99,,,-99.99,0.000000,,2013-01-24 03:42:00,
2013-01-23 19:50:00,44.0,36.0,-100.00,NE,35,1.0,2.0,74,-99.99,,,-99.99,0.000000,,2013-01-24 03:50:00,
2013-01-23 19:52:00,44.0,35.0,30.28,NE,35,0.0,1.0,71,-99.99,,,-99.99,0.000000,,2013-01-24 03:52:00,
2013-01-23 20:32:00,44.0,36.0,30.25,NE,35,1.0,2.0,74,-99.99,,,-99.99,0.000000,,2013-01-24 04:32:00,
2013-01-23 20:42:00,44.0,36.0,-100.00,NE,35,1.0,2.0,74,-99.99,,,-99.99,0.000000,,2013-01-24 04:42:00,